x

West Moresby (46208) Wave Buoy

1:00am - Sat 21st Jan 2017 All times are PST. -8 hours from GMT.

  • Sig Wave height 12.1ft
  • Peak Period 17s
  • Wind
    7mph, 11mph gusts
  • Sea Temp 47°f
  • Air Temp 43°f
  • Sea Pressure 989.3mb
  • West Moresby
  • West Moresby

More Historic Weather Station data

Upgrade to MSW Pro to gain access to the past 30 days of data for over 8000 Wavebouys and Weather Stations around the globe.

Join Pro

Comparision Forecast

View Surf forecast
   
Sat 01/21 1:00am 12ft 17s 7 11 mph 989.3mb 47f 43f
12:00am 10.5ft 17s 7 9 mph 989.4mb 47f 43f
Fri 01/20 11:00pm 10.5ft 18s 4 7 mph 989.4mb 47f 43f
10:00pm 9.5ft 17s 2 4 mph 989.4mb 47f 43f
9:00pm 9ft 20s 7 9 mph 989.4mb 47f 43f
8:00pm 8.5ft 20s 11 13 mph 989.3mb 46f 43f
7:00pm 8ft 12s 9 13 mph 989.5mb 46f 44f
6:00pm 8ft 14s 9 13 mph 989.5mb 46f 44f
5:00pm 8.5ft 12s 9 11 mph 989.8mb 46f 44f
4:00pm 9ft 12s 9 13 mph 990mb 47f 44f
3:00pm 9ft 15s 9 13 mph 990.1mb 47f 44f
2:00pm 10ft 11s 11 13 mph 990.2mb 47f 44f
1:00pm 9.5ft 11s 13 16 mph 990.4mb 47f 44f
12:00pm 10ft 13s 13 18 mph 990.6mb 47f 44f
11:00am 10.5ft 13s 9 13 mph 991mb 47f 44f
10:00am 11ft 14s 13 18 mph 990.9mb 47f 43f
9:00am 11.5ft 15s 9 13 mph 990.7mb 47f 43f
8:00am 12.5ft 11s 11 13 mph 990.5mb 47f 43f
7:00am 12.5ft 16s 11 16 mph 990.4mb 47f 43f
6:00am 14ft 16s 11 13 mph 990.5mb 47f 43f
5:00am 14ft 14s 9 16 mph 990.5mb 47f 43f
4:00am 14.5ft 16s 9 16 mph 990.6mb 47f 43f
3:00am 14.5ft 16s 7 13 mph 991mb 47f 43f
2:00am 16.5ft 15s 7 11 mph 991mb 47f 43f
1:00am 17.5ft 14s 7 13 mph 991.2mb 47f 43f
12:00am 17.5ft 14s 4 9 mph 991.1mb 47f 43f
Thu 01/19 11:00pm 19ft 15s 4 9 mph 991.2mb 47f 43f
10:00pm 18.5ft 16s 7 11 mph 991mb 47f 43f
9:00pm 16ft 15s 4 9 mph 991mb 47f 43f
8:00pm 16ft 13s 4 11 mph 990.8mb 47f 43f
7:00pm 14ft 12s 4 9 mph 990.9mb 47f 43f
6:00pm 13.5ft 11s 4 9 mph 990.9mb 47f 42f
5:00pm 13.5ft 12s 7 11 mph 990.8mb 47f 42f
4:00pm 13.5ft 13s 4 9 mph 990.6mb 47f 43f
3:00pm 13.5ft 12s 7 11 mph 990.4mb 47f 43f
2:00pm 13ft 10s 4 9 mph 990.3mb 47f 44f
1:00pm 13.5ft 11s 11 16 mph 990.4mb 47f 42f
12:00pm 12ft 11s 11 16 mph 990.5mb 47f 43f
11:00am 12ft 12s 9 13 mph 990.2mb 47f 43f
10:00am 14ft 12s 11 16 mph 989.9mb 47f 43f
9:00am 12ft 12s 13 16 mph 989mb 47f 43f
8:00am 14ft 12s 13 18 mph 988.3mb 47f 43f
7:00am 12ft 12s 18 25 mph 987.7mb 47f 43f
6:00am 12ft 12s 20 25 mph 987.2mb 47f 42f
5:00am 11ft 14s 18 25 mph 986.7mb 47f 43f
4:00am 11ft 12s 18 22 mph 986.1mb 47f 44f
3:00am 11ft 11s 16 20 mph 985.4mb 47f 44f
2:00am 10ft 12s 13 18 mph 984.9mb 47f 43f
1:00am 10.5ft 10s 13 18 mph 984.5mb 47f 44f
12:00am 11ft 12s 13 20 mph 983.9mb 47f 44f
Wed 01/18 11:00pm 12.5ft 12s 16 18 mph 983.5mb 47f 44f
10:00pm 11.5ft 12s 13 20 mph 982.7mb 47f 44f
9:00pm 12.5ft 12s 11 16 mph 981.9mb 47f 45f
8:00pm 11ft 10s 13 18 mph 981.2mb 47f 45f
7:00pm 11.5ft 11s 13 18 mph 980.3mb 47f 45f
6:00pm 11ft 11s 16 18 mph 979.7mb 47f 45f
5:00pm 11ft 11s 7 9 mph 979.2mb 47f 45f
4:00pm 12ft 11s 13 18 mph 978.6mb 47f 44f
3:00pm 12.5ft 11s 9 13 mph 978mb 47f 46f
2:00pm 11.5ft 12s 11 16 mph 977.6mb 47f 46f
1:00pm 11.5ft 12s 11 13 mph 977.5mb 47f 46f
12:00pm 12.5ft 10s 11 16 mph 977.3mb 47f 45f
11:00am  -   -  18
mph
- - -
10:00am 13ft 11s 20 27 mph 976.7mb 47f 46f
9:00am 13.5ft 10s 22 29 mph 976mb 47f 45f
8:00am 13ft 10s 20 25 mph 974.5mb 47f 46f
7:00am 14ft 11s 25 31 mph 973.5mb 47f 46f
6:00am 14ft 10s 29 36 mph 972.1mb 47f 45f
5:00am 13.5ft 11s 29 38 mph 970.3mb 47f 46f
4:00am 13ft 12s 20 25 mph 969mb 47f 46f
3:00am 14ft 12s 22 29 mph 968.6mb 47f 46f
2:00am 15ft 12s 22 29 mph 968.8mb 47f 46f
1:00am 15.5ft 13s 18 25 mph 969.2mb 47f 47f
12:00am 14ft 13s 20 25 mph 969.8mb 47f 47f
Tue 01/17 11:00pm 15ft 13s 22 27 mph 970.3mb 47f 47f
10:00pm 13.5ft 14s 20 25 mph 970.5mb 47f 46f
9:00pm 14ft 12s 22 31 mph 970.6mb 47f 46f
8:00pm 13ft 10s 22 29 mph 971mb 47f 46f
7:00pm 13ft 10s 20 25 mph 971.7mb 47f 46f
6:00pm 13ft 11s 18 25 mph 972.7mb 47f 47f
5:00pm 13.5ft 11s 20 22 mph 973.9mb 47f 46f
4:00pm 12.5ft 10s 20 25 mph 974.6mb 47f 47f
3:00pm 12ft 10s 22 27 mph 975.4mb 47f 47f
2:00pm 12ft 12s 16 20 mph 976.2mb 47f 47f
1:00pm 12ft 10s 13 18 mph 977.4mb 47f 47f
12:00pm 13ft 15s 16 20 mph 978.6mb 47f 47f
11:00am 13ft 10s 7 11 mph 979.8mb 47f 47f